Time;durP1;ratioP1;P1;durP2;ratioP2;P2;SDS_P1;SDS_P2;PMS_P1;PMS_P2;Temp;Humidity;BMP_temperature;BMP_pressure;BME280_temperature;BME280_humidity;BME280_pressure;Samples;Min_cycle;Max_cycle;Signal;HPM_P1;HPM_P2
2024/01/02 00:00:59;;;;;;;8.90;6.00;;;;;;;3.58;100.00;100384.15;109455;1241;72069;-77
2024/01/02 00:03:43;;;;;;;13.20;7.40;;;;;;;3.56;100.00;100391.34;109537;1241;70978;-76
2024/01/02 00:06:15;;;;;;;9.40;6.90;;;;;;;3.54;100.00;100391.25;109600;1241;73355;-78
2024/01/02 00:09:15;;;;;;;10.50;6.40;;;;;;;3.56;100.00;100395.64;109447;1245;57749;-76
2024/01/02 00:11:43;;;;;;;11.00;7.20;;;;;;;3.62;100.00;100398.11;109617;1243;61102;-75
2024/01/02 00:14:10;;;;;;;11.30;7.40;;;;;;;3.65;100.00;100405.69;109459;1241;62496;-75
2024/01/02 00:16:38;;;;;;;12.10;7.80;;;;;;;3.61;100.00;100406.42;109673;1241;72817;-73
2024/01/02 00:19:05;;;;;;;12.40;8.60;;;;;;;3.54;100.00;100408.66;109578;1241;59324;-75
2024/01/02 00:21:35;;;;;;;12.10;7.30;;;;;;;3.54;100.00;100414.48;109486;1241;72977;-77
2024/01/02 00:24:05;;;;;;;12.50;8.10;;;;;;;3.51;100.00;100415.34;109301;1241;57215;-76
2024/01/02 00:26:34;;;;;;;32.50;16.70;;;;;;;3.45;100.00;100423.00;109373;1241;60709;-77
2024/01/02 00:29:02;;;;;;;22.50;15.00;;;;;;;3.45;100.00;100424.72;109415;1241;62520;-74
2024/01/02 00:31:30;;;;;;;12.20;8.60;;;;;;;3.42;100.00;100422.64;109371;1241;71626;-75
2024/01/02 00:33:57;;;;;;;12.20;8.50;;;;;;;3.42;100.00;100422.66;109543;1241;68652;-75
2024/01/02 00:36:25;;;;;;;12.80;8.40;;;;;;;3.42;100.00;100420.92;109435;1241;72817;-76
2024/01/02 00:38:52;;;;;;;12.30;8.00;;;;;;;3.42;100.00;100422.63;109303;1245;57640;-75
2024/01/02 00:41:19;;;;;;;11.90;8.20;;;;;;;3.43;100.00;100422.43;109223;1244;61682;-76
2024/01/02 00:43:49;;;;;;;11.60;7.10;;;;;;;3.41;100.00;100418.57;109503;1241;73631;-75
2024/01/02 00:46:16;;;;;;;10.30;5.90;;;;;;;3.38;100.00;100415.08;109330;1241;61176;-76
2024/01/02 00:48:44;;;;;;;9.10;5.90;;;;;;;3.42;100.00;100411.93;109348;1241;69660;-77
2024/01/02 00:51:12;;;;;;;10.20;6.90;;;;;;;3.43;100.00;100417.25;109315;1241;63438;-76
2024/01/02 00:53:39;;;;;;;12.70;7.30;;;;;;;3.43;100.00;100426.36;109081;1241;57535;-75
2024/01/02 00:56:07;;;;;;;11.00;7.50;;;;;;;3.47;100.00;100430.34;109330;1241;61203;-76
2024/01/02 00:58:35;;;;;;;10.90;7.10;;;;;;;3.38;100.00;100436.07;109513;1241;73419;-76
2024/01/02 01:01:02;;;;;;;12.90;8.50;;;;;;;3.33;100.00;100436.46;109332;1247;61895;-76
2024/01/02 01:03:29;;;;;;;10.30;7.00;;;;;;;3.30;100.00;100439.39;109341;1241;70323;-77
2024/01/02 01:05:57;;;;;;;9.00;6.90;;;;;;;3.32;100.00;100444.44;109359;1246;63624;-76
2024/01/02 01:08:34;;;;;;;10.40;6.90;;;;;;;3.31;100.00;100444.67;109517;1244;61974;-76
2024/01/02 01:11:01;;;;;;;10.40;6.80;;;;;;;3.30;100.00;100442.31;109384;1241;57687;-76
2024/01/02 01:13:31;;;;;;;10.40;6.20;;;;;;;3.29;100.00;100445.95;109332;1241;73484;-77
2024/01/02 01:16:02;;;;;;;9.70;6.60;;;;;;;3.30;100.00;100446.80;109578;1244;61859;-77
2024/01/02 01:18:35;;;;;;;9.80;6.50;;;;;;;3.29;100.00;100444.42;109380;1241;70783;-77
2024/01/02 01:21:03;;;;;;;9.10;6.30;;;;;;;3.24;100.00;100444.13;109336;1241;63795;-77
2024/01/02 01:23:36;;;;;;;9.70;6.40;;;;;;;3.28;100.00;100447.58;109513;1241;63507;-77
2024/01/02 01:26:04;;;;;;;10.50;6.40;;;;;;;3.28;100.00;100456.55;109368;1241;61773;-77
2024/01/02 01:28:35;;;;;;;11.00;6.50;;;;;;;3.30;100.00;100459.52;109613;1242;63957;-78
2024/01/02 01:31:05;;;;;;;9.50;6.40;;;;;;;3.29;100.00;100456.63;109403;1241;72141;-77
2024/01/02 01:33:33;;;;;;;10.20;6.90;;;;;;;3.26;100.00;100455.44;109635;1241;69506;-77
2024/01/02 01:36:06;;;;;;;10.10;6.90;;;;;;;3.22;100.00;100448.55;109364;1245;62768;-75
2024/01/02 01:38:35;;;;;;;9.90;5.70;;;;;;;3.23;100.00;100442.67;109534;1246;57223;-78
2024/01/02 01:41:03;;;;;;;8.20;5.60;;;;;;;3.19;100.00;100442.80;109476;1247;57837;-76
2024/01/02 01:43:47;;;;;;;8.90;5.80;;;;;;;3.15;100.00;100442.11;109727;1241;73530;-76
2024/01/02 01:46:39;;;;;;;8.70;5.90;;;;;;;3.12;100.00;100444.35;109703;1241;72454;-76
2024/01/02 01:49:12;;;;;;;8.80;5.30;;;;;;;3.08;100.00;100446.75;109596;1241;69199;-75
2024/01/02 01:51:43;;;;;;;12.00;6.90;;;;;;;3.10;100.00;100448.40;109531;1241;63603;-75
2024/01/02 01:54:12;;;;;;;11.60;5.90;;;;;;;2.97;100.00;100446.75;109352;1247;61196;-77
2024/01/02 01:56:42;;;;;;;8.00;5.10;;;;;;;2.81;100.00;100444.51;109696;1241;59781;-75
2024/01/02 01:59:14;;;;;;;10.60;6.70;;;;;;;2.76;100.00;100439.42;109419;1241;75141;-76
2024/01/02 02:01:45;;;;;;;11.90;6.70;;;;;;;2.73;100.00;100441.84;109529;1241;62706;-75
2024/01/02 02:04:14;;;;;;;9.60;5.40;;;;;;;2.70;100.00;100444.01;109563;1245;59909;-74
2024/01/02 02:06:41;;;;;;;10.60;6.30;;;;;;;2.68;100.00;100444.77;109500;1241;72790;-75
2024/01/02 02:09:09;;;;;;;10.00;5.80;;;;;;;2.68;100.00;100435.33;109389;1248;57695;-75
2024/01/02 02:11:38;;;;;;;13.20;8.60;;;;;;;2.69;100.00;100444.02;109461;1241;60327;-73
2024/01/02 02:14:08;;;;;;;15.80;8.40;;;;;;;2.69;100.00;100444.23;109550;1246;63509;-79
2024/01/02 02:16:36;;;;;;;12.40;7.30;;;;;;;2.65;100.00;100446.62;109554;1241;71471;-79
2024/01/02 02:19:03;;;;;;;14.50;8.90;;;;;;;2.67;100.00;100440.86;109561;1246;68884;-78
2024/01/02 02:21:33;;;;;;;13.00;8.40;;;;;;;2.64;100.00;100443.02;109517;1246;73878;-77
2024/01/02 02:24:01;;;;;;;10.50;6.80;;;;;;;2.63;100.00;100442.91;109364;1245;62382;-78
2024/01/02 02:26:29;;;;;;;11.70;7.40;;;;;;;2.63;100.00;100437.92;109351;1241;61541;-78
2024/01/02 02:28:56;;;;;;;8.40;5.50;;;;;;;2.55;100.00;100428.13;109262;1247;63932;-77
2024/01/02 02:31:24;;;;;;;8.20;5.10;;;;;;;2.57;100.00;100433.04;109409;1241;72029;-80
2024/01/02 02:33:52;;;;;;;7.20;5.00;;;;;;;2.55;100.00;100430.89;109561;1242;59660;-77
2024/01/02 02:36:19;;;;;;;8.30;5.40;;;;;;;2.57;100.00;100429.11;109260;1241;73678;-78
2024/01/02 02:38:47;;;;;;;8.40;4.90;;;;;;;2.55;100.00;100425.91;109343;1245;61996;-79
2024/01/02 02:41:14;;;;;;;10.70;5.80;;;;;;;2.56;100.00;100421.39;109512;1245;57186;-78
2024/01/02 02:43:41;;;;;;;9.30;5.10;;;;;;;2.58;100.00;100423.55;109423;1241;73317;-80
2024/01/02 02:46:09;;;;;;;9.20;5.80;;;;;;;2.58;100.00;100422.00;109520;1241;73125;-80
2024/01/02 02:48:37;;;;;;;8.40;5.50;;;;;;;2.58;100.00;100424.23;109491;1241;69116;-80
2024/01/02 02:51:04;;;;;;;8.50;5.40;;;;;;;2.54;100.00;100425.62;109485;1246;63493;-79
2024/01/02 02:53:31;;;;;;;7.50;5.00;;;;;;;2.54;100.00;100423.02;109400;1247;62007;-77
2024/01/02 02:55:59;;;;;;;7.60;5.10;;;;;;;2.56;100.00;100423.48;109568;1241;57160;-76
2024/01/02 02:58:26;;;;;;;7.70;5.50;;;;;;;2.60;100.00;100423.64;109376;1245;64311;-77
2024/01/02 03:00:54;;;;;;;7.70;5.30;;;;;;;2.65;100.00;100426.85;109335;1241;72225;-77
2024/01/02 03:03:21;;;;;;;7.80;5.20;;;;;;;2.67;100.00;100431.40;109353;1241;70263;-77
2024/01/02 03:05:49;;;;;;;10.80;5.70;;;;;;;2.67;100.00;100428.14;109495;1244;73433;-77
2024/01/02 03:08:16;;;;;;;7.20;4.60;;;;;;;2.69;100.00;100429.78;109533;1245;62015;-78
2024/01/02 03:10:44;;;;;;;8.10;5.20;;;;;;;2.69;100.00;100427.55;109563;1241;61072;-78
2024/01/02 03:13:11;;;;;;;7.70;4.80;;;;;;;2.73;100.00;100429.78;109375;1246;62796;-78
2024/01/02 03:15:38;;;;;;;7.70;4.60;;;;;;;2.81;100.00;100428.73;109532;1241;72648;-77
2024/01/02 03:18:06;;;;;;;6.70;4.30;;;;;;;2.86;100.00;100430.39;109680;1244;59817;-78
2024/01/02 03:20:34;;;;;;;7.90;4.40;;;;;;;2.93;100.00;100430.22;109485;1241;73790;-79
2024/01/02 03:23:02;;;;;;;7.00;4.80;;;;;;;3.02;100.00;100420.55;109471;1246;61034;-77
2024/01/02 03:25:30;;;;;;;6.40;4.30;;;;;;;3.13;100.00;100425.54;109433;1242;61066;-78
2024/01/02 03:27:57;;;;;;;6.30;4.00;;;;;;;3.19;100.00;100427.49;109685;1245;63339;-74
2024/01/02 03:30:24;;;;;;;7.90;5.40;;;;;;;3.25;100.00;100431.18;109683;1241;71936;-78
2024/01/02 03:32:52;;;;;;;10.80;5.90;;;;;;;3.32;100.00;100427.59;109429;1245;59635;-79
2024/01/02 03:35:19;;;;;;;9.00;4.80;;;;;;;3.36;100.00;100418.95;109494;1241;72925;-77
2024/01/02 03:37:47;;;;;;;7.60;4.00;;;;;;;3.45;100.00;100421.96;109547;1244;60395;-77
2024/01/02 03:40:14;;;;;;;7.60;4.30;;;;;;;3.50;100.00;100419.54;109530;1243;58068;-77
2024/01/02 03:42:43;;;;;;;6.80;4.70;;;;;;;3.57;100.00;100416.58;109302;1241;72443;-77
2024/01/02 03:45:10;;;;;;;5.40;3.30;;;;;;;3.65;100.00;100419.31;109248;1245;61196;-78
2024/01/02 03:47:37;;;;;;;3.90;2.50;;;;;;;3.70;100.00;100420.25;109436;1244;60481;-77
2024/01/02 03:50:06;;;;;;;4.60;2.50;;;;;;;3.81;100.00;100420.60;109258;1245;71729;-77
2024/01/02 03:52:34;;;;;;;6.10;3.40;;;;;;;3.87;100.00;100418.06;109254;1246;59259;-76
2024/01/02 03:55:01;;;;;;;7.90;4.70;;;;;;;3.90;100.00;100419.79;109353;1246;57701;-76
2024/01/02 03:57:29;;;;;;;4.90;3.30;;;;;;;3.93;100.00;100422.59;109345;1241;73543;-77
2024/01/02 03:59:56;;;;;;;6.40;3.50;;;;;;;3.95;100.00;100425.07;109327;1245;62041;-77
2024/01/02 04:02:24;;;;;;;23.70;10.60;;;;;;;3.94;100.00;100430.30;109531;1241;70329;-77
2024/01/02 04:04:51;;;;;;;16.80;8.40;;;;;;;3.88;100.00;100432.82;109552;1244;63468;-77
2024/01/02 04:07:19;;;;;;;6.30;3.80;;;;;;;3.87;100.00;100438.92;109421;1245;58739;-79
2024/01/02 04:09:46;;;;;;;8.10;4.40;;;;;;;3.86;100.00;100442.91;109566;1242;57679;-79
2024/01/02 04:12:13;;;;;;;5.70;3.60;;;;;;;3.86;100.00;100445.14;109616;1245;62251;-79
2024/01/02 04:14:41;;;;;;;6.70;3.90;;;;;;;3.88;100.00;100446.96;109644;1241;71897;-80
2024/01/02 04:17:08;;;;;;;16.90;9.20;;;;;;;3.90;100.00;100446.14;109600;1242;59652;-78
2024/01/02 04:19:36;;;;;;;9.00;5.30;;;;;;;3.90;100.00;100448.73;109551;1241;73874;-79
2024/01/02 04:22:04;;;;;;;9.80;5.10;;;;;;;3.88;100.00;100448.48;109757;1242;57144;-74
2024/01/02 04:24:32;;;;;;;5.70;3.60;;;;;;;3.71;100.00;100444.49;109504;1240;61133;-75
2024/01/02 04:27:00;;;;;;;9.10;4.80;;;;;;;3.55;100.00;100441.82;109743;1243;73093;-75
2024/01/02 04:29:27;;;;;;;9.60;5.70;;;;;;;3.59;100.00;100440.93;109736;1241;62606;-76
2024/01/02 04:31:54;;;;;;;7.00;4.30;;;;;;;3.61;100.00;100440.86;109673;1241;70331;-76
2024/01/02 04:34:22;;;;;;;7.10;4.60;;;;;;;3.61;100.00;100438.95;109701;1241;63553;-77
2024/01/02 04:36:49;;;;;;;7.60;3.80;;;;;;;3.63;100.00;100431.98;109602;1241;57795;-77
2024/01/02 04:39:17;;;;;;;5.50;3.40;;;;;;;3.68;100.00;100432.92;109657;1241;60320;-76
2024/01/02 04:41:44;;;;;;;5.20;2.80;;;;;;;3.76;100.00;100437.20;109649;1241;63307;-76
2024/01/02 04:44:11;;;;;;;6.80;3.50;;;;;;;3.79;100.00;100441.70;109680;1241;71955;-77
2024/01/02 04:46:39;;;;;;;4.70;3.30;;;;;;;3.83;100.00;100442.39;109696;1241;60351;-76
2024/01/02 04:49:06;;;;;;;9.60;3.90;;;;;;;3.92;100.00;100441.59;109707;1241;63936;-76
2024/01/02 04:51:34;;;;;;;5.10;2.60;;;;;;;3.91;100.00;100441.27;109689;1241;60675;-77
2024/01/02 04:54:01;;;;;;;5.50;3.80;;;;;;;3.82;100.00;100441.91;109737;1241;58215;-76
2024/01/02 04:56:29;;;;;;;7.70;3.50;;;;;;;3.87;100.00;100450.98;109516;1241;72802;-79
2024/01/02 04:58:56;;;;;;;10.10;5.30;;;;;;;3.84;100.00;100447.14;109531;1241;71085;-78
2024/01/02 05:01:24;;;;;;;5.10;2.40;;;;;;;3.84;100.00;100445.91;109538;1241;71398;-79
2024/01/02 05:03:51;;;;;;;4.10;2.60;;;;;;;3.83;100.00;100440.64;109693;1242;63762;-77
2024/01/02 05:06:19;;;;;;;4.40;2.60;;;;;;;3.89;100.00;100441.04;109717;1244;61128;-81
2024/01/02 05:08:46;;;;;;;4.50;3.00;;;;;;;3.90;100.00;100439.44;109735;1241;57672;-81
2024/01/02 05:11:14;;;;;;;3.60;2.20;;;;;;;3.90;100.00;100437.54;109713;1241;72616;-81
2024/01/02 05:13:42;;;;;;;4.00;2.40;;;;;;;3.92;100.00;100435.73;109726;1241;63845;-80
2024/01/02 05:16:10;;;;;;;5.10;2.60;;;;;;;3.88;100.00;100430.91;109545;1241;59528;-80
2024/01/02 05:18:37;;;;;;;4.40;2.50;;;;;;;3.85;100.00;100429.20;109784;1241;62344;-81
2024/01/02 05:21:04;;;;;;;4.20;2.40;;;;;;;3.81;100.00;100431.46;109787;1242;62179;-75
2024/01/02 05:23:32;;;;;;;3.10;2.30;;;;;;;3.77;100.00;100434.89;109798;1244;59966;-76
2024/01/02 05:25:59;;;;;;;3.50;2.40;;;;;;;3.75;100.00;100439.66;109590;1241;63482;-77
2024/01/02 05:28:27;;;;;;;3.60;2.40;;;;;;;3.67;100.00;100434.70;109768;1241;71024;-77
2024/01/02 05:30:54;;;;;;;6.30;3.40;;;;;;;3.66;100.00;100447.85;109779;1241;60272;-75
2024/01/02 05:33:21;;;;;;;5.20;3.00;;;;;;;3.60;100.00;100454.86;109722;1242;73529;-76
2024/01/02 05:35:50;;;;;;;6.80;3.80;;;;;;;3.55;100.00;100454.58;109729;1241;57659;-75
2024/01/02 05:38:17;;;;;;;5.00;3.10;;;;;;;3.49;100.00;100455.38;109750;1241;61108;-75
2024/01/02 05:40:45;;;;;;;7.10;4.10;;;;;;;3.47;100.00;100461.66;109801;1244;73426;-77
2024/01/02 05:43:12;;;;;;;8.00;5.10;;;;;;;3.39;100.00;100459.94;109802;1241;61977;-77
2024/01/02 05:45:40;;;;;;;7.50;4.80;;;;;;;3.33;100.00;100462.51;109555;1241;70835;-77
2024/01/02 05:48:09;;;;;;;5.90;3.90;;;;;;;3.32;100.00;100462.52;109752;1241;63652;-75
2024/01/02 05:50:36;;;;;;;7.10;3.70;;;;;;;3.32;100.00;100458.76;109746;1243;57492;-76
2024/01/02 05:53:04;;;;;;;7.60;4.20;;;;;;;3.27;100.00;100456.76;109777;1241;57678;-77
2024/01/02 05:55:31;;;;;;;8.60;4.30;;;;;;;3.20;100.00;100455.67;109761;1241;62835;-77
2024/01/02 05:57:59;;;;;;;6.10;3.80;;;;;;;3.13;100.00;100456.35;109758;1241;71371;-76
2024/01/02 06:00:26;;;;;;;6.90;4.20;;;;;;;2.96;100.00;100462.27;109584;1241;60325;-77
2024/01/02 06:02:53;;;;;;;6.30;3.50;;;;;;;2.90;100.00;100469.10;109788;1241;72980;-75
2024/01/02 06:05:21;;;;;;;6.80;3.70;;;;;;;2.82;100.00;100471.31;109791;1244;57523;-79
2024/01/02 06:07:48;;;;;;;5.50;3.60;;;;;;;2.87;100.00;100471.26;109590;1241;61099;-78
2024/01/02 06:10:16;;;;;;;6.90;4.00;;;;;;;2.85;100.00;100473.55;109735;1244;62564;-80
2024/01/02 06:12:43;;;;;;;6.30;3.60;;;;;;;2.68;100.00;100477.10;109567;1241;61003;-76
2024/01/02 06:15:13;;;;;;;6.70;3.90;;;;;;;2.55;100.00;100480.08;109764;1241;70503;-76
2024/01/02 06:17:45;;;;;;;6.30;3.80;;;;;;;2.55;100.00;100476.95;109518;1241;65379;-76
2024/01/02 06:20:13;;;;;;;6.60;3.90;;;;;;;2.57;100.00;100474.80;109775;1241;57601;-80
2024/01/02 06:22:41;;;;;;;8.50;4.40;;;;;;;2.54;100.00;100474.95;109766;1242;60251;-78
2024/01/02 06:25:14;;;;;;;;;;;;;;;2.60;100.00;100475.04;109596;1245;63280;-76
2024/01/02 06:27:41;;;;;;;7.40;4.70;;;;;;;2.55;100.00;100475.61;109574;1241;61967;-75
2024/01/02 06:30:09;;;;;;;8.70;5.00;;;;;;;2.56;100.00;100477.28;109570;1241;70534;-75
2024/01/02 06:32:36;;;;;;;9.60;5.30;;;;;;;2.58;100.00;100481.31;109726;1241;74123;-77
2024/01/02 06:35:04;;;;;;;9.00;5.50;;;;;;;2.56;100.00;100487.92;109488;1247;57716;-77
2024/01/02 06:37:32;;;;;;;9.30;5.20;;;;;;;2.66;100.00;100492.98;109763;1244;57202;-76
2024/01/02 06:40:00;;;;;;;10.80;5.90;;;;;;;2.64;100.00;100487.39;109537;1241;73455;-77
2024/01/02 06:42:27;;;;;;;9.00;5.80;;;;;;;2.83;100.00;100488.63;109773;1241;61318;-78
2024/01/02 06:44:55;;;;;;;10.40;6.10;;;;;;;2.91;100.00;100490.56;109706;1241;70472;-77
2024/01/02 06:47:22;;;;;;;11.00;6.60;;;;;;;2.94;100.00;100491.60;109679;1242;63565;-76
2024/01/02 06:49:50;;;;;;;13.10;7.80;;;;;;;2.97;100.00;100493.89;109678;1244;61850;-87
2024/01/02 06:52:18;;;;;;;12.70;8.40;;;;;;;3.08;100.00;100494.93;109518;1241;60222;-81
2024/01/02 06:54:45;;;;;;;13.40;9.50;;;;;;;3.07;100.00;100495.86;109549;1241;62796;-82
2024/01/02 06:57:12;;;;;;;21.60;15.20;;;;;;;3.17;100.00;100493.14;109572;1241;72117;-77
2024/01/02 06:59:44;;;;;;;17.70;8.40;;;;;;;3.23;100.00;100495.65;109531;1241;71615;-78
2024/01/02 07:02:13;;;;;;;12.40;6.10;;;;;;;3.39;100.00;100492.83;109497;1241;62852;-76
2024/01/02 07:04:40;;;;;;;7.50;4.50;;;;;;;3.53;100.00;100495.30;109581;1241;57699;-77
2024/01/02 07:07:09;;;;;;;6.60;3.50;;;;;;;3.74;100.00;100496.05;109601;1241;61751;-77
2024/01/02 07:09:36;;;;;;;7.40;4.70;;;;;;;3.95;100.00;100496.04;109609;1241;62704;-76
2024/01/02 07:12:05;;;;;;;11.20;5.60;;;;;;;4.29;100.00;100495.23;109552;1242;60911;-77
2024/01/02 07:14:33;;;;;;;6.50;4.50;;;;;;;4.62;100.00;100494.47;109531;1241;59863;-74
2024/01/02 07:17:01;;;;;;;7.20;3.70;;;;;;;4.90;100.00;100490.81;109366;1244;72982;-74
2024/01/02 07:19:29;;;;;;;7.70;4.60;;;;;;;5.11;100.00;100489.98;109504;1242;60708;-78
2024/01/02 07:21:56;;;;;;;7.60;4.50;;;;;;;5.33;100.00;100489.36;109623;1241;57190;-78
2024/01/02 07:24:24;;;;;;;8.80;4.40;;;;;;;5.33;100.00;100491.05;109567;1241;73434;-72
2024/01/02 07:26:51;;;;;;;8.50;4.10;;;;;;;5.39;100.00;100495.08;109533;1241;61844;-78
2024/01/02 07:29:20;;;;;;;10.90;5.50;;;;;;;5.37;100.00;100499.13;109597;1241;59971;-83
2024/01/02 07:31:48;;;;;;;11.20;6.10;;;;;;;5.23;100.00;100499.05;109609;1242;73323;-76
2024/01/02 07:34:15;;;;;;;14.80;6.50;;;;;;;5.16;100.00;100505.44;109583;1242;57282;-80
2024/01/02 07:36:43;;;;;;;12.60;6.80;;;;;;;5.24;100.00;100510.38;109630;1241;61082;-72
2024/01/02 07:39:10;;;;;;;16.20;6.80;;;;;;;5.24;100.00;100510.93;109766;1241;62549;-75
2024/01/02 07:41:38;;;;;;;25.60;13.40;;;;;;;5.26;100.00;100515.98;109678;1241;71465;-71
2024/01/02 07:44:06;;;;;;;46.60;35.40;;;;;;;5.21;100.00;100517.09;109802;1241;59454;-70
2024/01/02 07:46:34;;;;;;;31.40;22.70;;;;;;;5.24;100.00;100515.38;109720;1242;63132;-72
2024/01/02 07:49:01;;;;;;;11.80;7.80;;;;;;;5.35;100.00;100514.77;109707;1242;59473;-71
2024/01/02 07:51:29;;;;;;;13.30;9.10;;;;;;;5.35;100.00;100514.10;109753;1242;57731;-72
2024/01/02 07:53:56;;;;;;;14.50;7.30;;;;;;;5.36;100.00;100511.96;109754;1241;72598;-72
2024/01/02 07:56:26;;;;;;;11.70;6.80;;;;;;;5.32;100.00;100508.56;109756;1242;72632;-72
2024/01/02 07:58:53;;;;;;;24.70;12.90;;;;;;;5.44;100.00;100504.83;109748;1241;59394;-72
2024/01/02 08:01:20;;;;;;;14.30;9.40;;;;;;;5.47;100.00;100509.11;109694;1241;71912;-71
2024/01/02 08:03:48;;;;;;;16.30;8.50;;;;;;;5.61;100.00;100511.14;109670;1241;57153;-70
2024/01/02 08:06:16;;;;;;;19.50;10.80;;;;;;;5.72;100.00;100512.27;109661;1241;57933;-71
2024/01/02 08:08:44;;;;;;;26.50;10.90;;;;;;;5.73;100.00;100514.59;109585;1241;62874;-71
2024/01/02 08:11:11;;;;;;;18.50;10.60;;;;;;;5.85;100.00;100519.48;109764;1241;71250;-70
2024/01/02 08:13:39;;;;;;;19.00;8.10;;;;;;;5.90;100.00;100522.48;109736;1242;69770;-69
2024/01/02 08:16:06;;;;;;;14.20;7.00;;;;;;;6.04;100.00;100523.96;109458;1241;354599;-71
2024/01/02 08:18:40;;;;;;;12.30;6.70;;;;;;;6.10;100.00;100527.96;109753;1241;60333;-70
2024/01/02 08:21:08;;;;;;;9.10;5.20;;;;;;;6.20;100.00;100526.21;109740;1244;57204;-71
2024/01/02 08:23:38;;;;;;;10.40;5.20;;;;;;;6.25;100.00;100522.60;109695;1241;73464;-70
2024/01/02 08:26:15;;;;;;;8.80;5.50;;;;;;;6.30;100.00;100520.09;109688;1241;72856;-70
2024/01/02 08:28:43;;;;;;;8.80;5.40;;;;;;;6.18;100.00;100520.59;109753;1241;70024;-71
2024/01/02 08:31:10;;;;;;;8.20;5.30;;;;;;;6.25;100.00;100520.68;109645;1245;74818;-71
2024/01/02 08:33:41;;;;;;;12.30;5.50;;;;;;;6.29;100.00;100520.14;109727;1243;59449;-71
2024/01/02 08:36:11;;;;;;;12.40;5.90;;;;;;;6.28;100.00;100517.43;109588;1245;57762;-70
2024/01/02 08:38:40;;;;;;;21.10;6.80;;;;;;;6.37;100.00;100516.02;109743;1241;71790;-70
2024/01/02 08:41:08;;;;;;;12.30;6.20;;;;;;;6.35;100.00;100515.43;109664;1241;71550;-71
2024/01/02 08:43:36;;;;;;;28.60;7.80;;;;;;;6.36;100.00;100514.36;109656;1245;59368;-70
2024/01/02 08:46:04;;;;;;;16.30;7.70;;;;;;;6.45;100.00;100513.48;109679;1241;73665;-70
2024/01/02 08:48:32;;;;;;;16.00;7.10;;;;;;;6.53;100.00;100511.30;109245;1241;60870;-70
2024/01/02 08:51:00;;;;;;;24.20;8.30;;;;;;;6.55;100.00;100514.83;109611;1244;57680;-70
2024/01/02 08:53:28;;;;;;;22.40;7.90;;;;;;;6.48;100.00;100516.97;109544;1241;73044;-70
2024/01/02 08:55:56;;;;;;;19.00;7.70;;;;;;;6.67;100.00;100519.80;109537;1244;61898;-69
2024/01/02 08:58:23;;;;;;;35.20;11.10;;;;;;;6.75;100.00;100516.42;109621;1241;59529;-71
2024/01/02 09:00:51;;;;;;;28.30;11.70;;;;;;;6.84;100.00;100519.15;109558;1241;73708;-71
2024/01/02 09:03:18;;;;;;;33.30;19.60;;;;;;;7.00;100.00;100520.61;109699;1245;57743;-79
2024/01/02 09:05:46;;;;;;;32.70;10.60;;;;;;;7.15;100.00;100518.66;109701;1241;61348;-71
2024/01/02 09:08:14;;;;;;;28.40;9.70;;;;;;;7.27;100.00;100515.65;109414;1248;65083;-70
2024/01/02 09:10:43;;;;;;;25.10;13.30;;;;;;;7.41;100.00;100510.11;109626;1241;71183;-70
2024/01/02 09:13:11;;;;;;;16.40;8.50;;;;;;;7.60;100.00;100514.30;109619;1241;69201;-71
2024/01/02 09:15:39;;;;;;;20.50;9.30;;;;;;;7.73;100.00;100519.73;109638;1245;63477;-70
2024/01/02 09:18:07;;;;;;;17.30;7.90;;;;;;;7.90;100.00;100515.38;109697;1245;59506;-72
2024/01/02 09:20:40;;;;;;;20.50;8.20;;;;;;;8.23;100.00;100517.59;109583;1245;58700;-69
2024/01/02 09:23:08;;;;;;;16.40;7.40;;;;;;;8.45;100.00;100516.29;109774;1242;62852;-69
2024/01/02 09:25:43;;;;;;;17.40;7.80;;;;;;;8.60;100.00;100520.99;109752;1241;71868;-70
2024/01/02 09:28:13;;;;;;;21.80;9.10;;;;;;;8.71;100.00;100509.69;109668;1241;69943;-69
2024/01/02 09:30:47;;;;;;;27.00;10.30;;;;;;;8.61;100.00;100511.55;109593;1241;73461;-70
2024/01/02 09:33:15;;;;;;;13.70;8.40;;;;;;;8.71;100.00;100507.13;109326;1246;60521;-70
2024/01/02 09:35:42;;;;;;;19.40;8.20;;;;;;;8.77;100.00;100508.04;109531;1244;61460;-69
2024/01/02 09:38:12;;;;;;;26.10;8.70;;;;;;;8.93;100.00;100504.73;109510;1244;63553;-70
2024/01/02 09:41:24;;;;;;;22.70;8.50;;;;;;;9.07;100.00;100505.85;109510;1243;71982;-70
2024/01/02 09:44:41;;;;;;;19.80;7.90;;;;;;;9.14;100.00;100498.77;109533;1242;59833;-69
2024/01/02 09:47:43;;;;;;;11.50;6.80;;;;;;;9.18;100.00;100496.90;109517;1242;74496;-76
2024/01/02 09:50:15;;;;;;;20.60;7.80;;;;;;;9.25;100.00;100489.58;109430;1241;60015;-70
2024/01/02 09:53:30;;;;;;;23.70;8.00;;;;;;;9.32;100.00;100489.34;109511;1241;60733;-69
2024/01/02 09:56:12;;;;;;;20.70;7.30;;;;;;;9.21;100.00;100482.25;109416;1246;62929;-69
2024/01/02 09:59:27;;;;;;;19.50;6.50;;;;;;;9.26;100.00;100478.60;109561;1241;73370;-70
2024/01/02 10:02:48;;;;;;;15.40;4.90;;;;;;;9.25;100.00;100481.45;109528;1245;59502;-77
2024/01/02 10:05:54;;;;;;;10.30;5.60;;;;;;;9.29;100.00;100477.86;109514;1241;73897;-72
2024/01/02 10:08:53;;;;;;;13.20;5.50;;;;;;;9.38;100.00;100474.50;109513;1243;57735;-71
2024/01/02 10:11:34;;;;;;;18.10;8.90;;;;;;;9.49;100.00;100463.59;109539;1241;61531;-70
2024/01/02 10:14:10;;;;;;;10.20;5.10;;;;;;;9.37;100.00;100462.58;109470;1245;74172;-69
2024/01/02 10:17:11;;;;;;;10.60;5.10;;;;;;;9.43;100.00;100456.21;109326;1249;61298;-72
2024/01/02 10:20:03;;;;;;;11.20;5.20;;;;;;;9.55;100.00;100453.20;109509;1242;69068;-72
2024/01/02 10:23:11;;;;;;;13.90;5.30;;;;;;;9.50;100.00;100452.54;109329;1248;63787;-72
2024/01/02 10:25:40;;;;;;;7.60;4.10;;;;;;;9.53;100.00;100449.92;109221;1245;57747;-72
2024/01/02 10:28:11;;;;;;;10.90;4.10;;;;;;;9.59;100.00;100450.86;109482;1242;61349;-70
2024/01/02 10:31:12;;;;;;;8.30;4.30;;;;;;;9.65;100.00;100449.59;109508;1241;74027;-71
2024/01/02 10:34:10;;;;;;;8.20;3.60;;;;;;;9.80;100.00;100441.19;109565;1242;71665;-71
2024/01/02 10:36:56;;;;;;;9.60;4.10;;;;;;;9.81;100.00;100433.77;109604;1244;59794;-70
2024/01/02 10:39:37;;;;;;;7.60;4.00;;;;;;;9.96;100.00;100430.79;109490;1244;73068;-77
2024/01/02 10:42:22;;;;;;;8.70;3.70;;;;;;;10.00;100.00;100426.84;109256;1250;60764;-72
2024/01/02 10:45:12;;;;;;;11.20;4.00;;;;;;;10.02;100.00;100424.43;109457;1245;57731;-74
2024/01/02 10:48:13;;;;;;;11.60;4.40;;;;;;;10.15;100.00;100419.61;109347;1249;72866;-71
2024/01/02 10:51:03;;;;;;;11.10;4.10;;;;;;;10.31;100.00;100420.31;109554;1244;72707;-72
2024/01/02 10:53:37;;;;;;;10.40;4.40;;;;;;;10.42;100.00;100417.79;109537;1241;62581;-73
2024/01/02 10:56:19;;;;;;;8.30;3.40;;;;;;;10.43;100.00;100420.16;109518;1245;63534;-73
2024/01/02 10:59:04;;;;;;;13.10;3.60;;;;;;;10.49;100.00;100412.41;109540;1245;61196;-73
2024/01/02 11:01:37;;;;;;;8.70;3.50;;;;;;;10.37;100.00;100413.83;109564;1246;61848;-72
2024/01/02 11:04:13;;;;;;;;;;;;;;;10.62;100.00;100408.42;109340;1245;74409;-72
2024/01/02 11:07:03;;;;;;;8.40;3.10;;;;;;;10.74;100.00;100412.70;109433;1241;72158;-71
2024/01/02 11:09:52;;;;;;;5.60;3.20;;;;;;;10.84;100.00;100406.16;109332;1246;70230;-72
2024/01/02 11:12:22;;;;;;;6.60;3.20;;;;;;;10.82;100.00;100402.65;109461;1244;63445;-71
2024/01/02 11:14:51;;;;;;;7.40;3.40;;;;;;;10.76;100.00;100398.75;109317;1241;58724;-73
2024/01/02 11:17:22;;;;;;;8.70;3.20;;;;;;;10.63;100.00;100394.58;109547;1241;57315;-72
2024/01/02 11:20:10;;;;;;;5.20;2.70;;;;;;;10.67;100.00;100395.48;109293;1241;63009;-71
2024/01/02 11:22:59;;;;;;;7.30;3.00;;;;;;;10.72;100.00;100392.31;109562;1241;72364;-71
2024/01/02 11:25:31;;;;;;;3.70;2.20;;;;;;;10.76;99.82;100391.25;109423;1241;71190;-72
2024/01/02 11:28:15;;;;;;;5.30;2.50;;;;;;;10.79;100.00;100393.15;109296;1244;63684;-69
2024/01/02 11:30:50;;;;;;;5.30;2.50;;;;;;;10.76;99.92;100391.78;109328;1246;61196;-71